Buoy 52912

sailwx.info

Track history (hours):
 
Tides and Currents Weather Stations Pressure Air Temp Water Temp Dewpoint Dewpoint Depression Visibility Wind Speed Wind Dir Waves Ship Positions

Drifting buoy 52912

Last reported at 2014-Aug-01 11:00 UTC. Time now 2014-Aug-01 14:03 UTC.
Position N 08°49' E 161°46'.

Water temperature 29.7 ° C

Date/timePositionNaut miles runAvg speedWind from/ knotsBaromVisibWave heightAir tempDewpointWater temp
2014-Aug-01 11:00N 08°49' E 161°46'0 0.1 29.7
2014-Aug-01 05:00N 08°49' E 161°46'0 0.0 30.1
2014-Aug-01 04:00N 08°49' E 161°46'2 1.6 30.1
2014-Aug-01 03:00N 08°48' E 161°47'0 0.0 29.9
2014-Jul-31 23:00N 08°48' E 161°47'2 0.3 29.7
2014-Jul-31 16:00N 08°46' E 161°49'2 0.8 29.6
2014-Jul-31 14:00N 08°45' E 161°49'0 0.0 29.6
2014-Jul-31 11:00N 08°45' E 161°49'1 0.6 29.6
2014-Jul-31 09:00N 08°43' E 161°49'2 0.8 29.6
2014-Jul-31 07:00N 08°42' E 161°50'0 0.1 29.6
2014-Jul-31 05:00N 08°43' E 161°50'1 1.2 29.7
2014-Jul-31 04:00N 08°42' E 161°51'0 0.0 29.7
2014-Jul-31 03:00N 08°42' E 161°51'4 0.6 29.7
2014-Jul-30 19:00N 08°37' E 161°52'2 2.1 29.6
2014-Jul-30 18:00N 08°36' E 161°53'1 0.6 29.5
2014-Jul-30 16:00N 08°35' E 161°54'0 0.0 29.5
2014-Jul-30 15:00N 08°35' E 161°54'0 0.0 29.5
2014-Jul-30 14:00N 08°35' E 161°54'0 0.1 29.5
2014-Jul-30 10:00N 08°34' E 161°54'5 0.5 29.7
2014-Jul-30 01:00N 08°32' E 161°58'1 0.2 29.6
2014-Jul-29 22:00N 08°31' E 161°57'5 0.9 29.7
2014-Jul-29 17:00N 08°29' E 162°02'2 2.2 29.9
2014-Jul-29 16:00N 08°29' E 162°04'0 0.0 30.0
2014-Jul-29 15:00N 08°29' E 162°04'1 0.2 30.0
2014-Jul-29 11:00N 08°29' E 162°05'4 0.9 30.0
2014-Jul-29 07:00N 08°28' E 162°08'0 0.0 30.4
2014-Jul-29 06:00N 08°28' E 162°08'1 0.6 30.7
2014-Jul-29 05:00N 08°28' E 162°09'1 0.6 30.9
2014-Jul-29 03:00N 08°28' E 162°10'3 0.5 30.9
2014-Jul-28 21:00N 08°30' E 162°12'1 0.2 29.6
2014-Jul-28 18:00N 08°30' E 162°13'0 0.0 29.6
2014-Jul-28 17:00N 08°30' E 162°13'2 0.3 29.6
2014-Jul-28 11:00N 08°32' E 162°13'0 0.1 29.7
2014-Jul-28 09:00N 08°32' E 162°12'1 0.7 29.8
2014-Jul-28 07:00N 08°31' E 162°14'0 0.0 29.9
2014-Jul-28 06:00N 08°31' E 162°14'1 0.2 30.0
2014-Jul-28 03:00N 08°31' E 162°13'2 2.1 30.1
2014-Jul-28 02:00N 08°31' E 162°11'0 0.0 30.0
2014-Jul-28 01:00N 08°31' E 162°11'2 0.4 29.9
2014-Jul-27 18:00N 08°29' E 162°12'0 0.0 29.5
2014-Jul-27 17:00N 08°29' E 162°12'1 0.9 29.5
2014-Jul-27 16:00N 08°28' E 162°11'1 0.3 29.5
2014-Jul-27 11:00N 08°27' E 162°10'1 0.5 29.5
2014-Jul-27 09:00N 08°26' E 162°09'0 0.0 29.6
2014-Jul-27 08:00N 08°26' E 162°09'4 0.9 29.6
2014-Jul-27 03:00N 08°23' E 162°12'0 0.0 29.6
2014-Jul-27 02:00N 08°23' E 162°12'0 0.0 29.5
2014-Jul-27 01:00N 08°23' E 162°12'2 1.0 29.5
2014-Jul-26 23:00N 08°21' E 162°11'3 2.8 29.3
2014-Jul-26 22:00N 08°18' E 162°12'1 0.3 29.3
2014-Jul-26 19:00N 08°18' E 162°12'2 1.7 29.6
2014-Jul-26 18:00N 08°18' E 162°14'1 0.4 29.5
2014-Jul-26 15:00N 08°18' E 162°15'7 0.6 29.7
2014-Jul-26 04:00N 08°16' E 162°22'0 0.0 29.8
2014-Jul-26 03:00N 08°16' E 162°22'5 0.8 29.8
2014-Jul-25 21:00N 08°17' E 162°27'0 0.0 29.5
2014-Jul-25 18:00N 08°17' E 162°27'4 0.6 29.4
2014-Jul-25 10:00N 08°20' E 162°29'2 0.5 29.6
2014-Jul-25 05:00N 08°22' E 162°30'2 0.5 29.6
2014-Jul-25 02:00N 08°24' E 162°29'2 0.5 29.5
2014-Jul-24 22:00N 08°26' E 162°28'0 0.0 29.7
2014-Jul-24 21:00N 08°26' E 162°28'0 0.0 29.6
2014-Jul-24 19:00N 08°26' E 162°28'0 0.0 29.6
2014-Jul-24 18:00N 08°26' E 162°28'1 0.7 29.6
2014-Jul-24 16:00N 08°27' E 162°27'0 0.0 29.6
2014-Jul-24 15:00N 08°27' E 162°27'2 0.4 29.6
2014-Jul-24 10:00N 08°28' E 162°25'0 0.4 29.7
2014-Jul-24 09:00N 08°28' E 162°25'2 0.6 29.7
2014-Jul-24 05:00N 08°26' E 162°23'5 0.4 29.8
2014-Jul-23 18:00N 08°22' E 162°24'1 0.6 29.6
2014-Jul-23 16:00N 08°21' E 162°25'0 0.0 29.7
2014-Jul-23 15:00N 08°21' E 162°25'4 0.5 29.7
2014-Jul-23 07:00N 08°19' E 162°28'0 0.2 30.0
2014-Jul-23 05:00N 08°19' E 162°28'1 1.1 30.1
2014-Jul-23 04:00N 08°19' E 162°29'0 0.1 30.0
2014-Jul-23 03:00N 08°19' E 162°29'4 0.5 30.0
2014-Jul-22 20:00N 08°18' E 162°33'0 0.0 29.5
2014-Jul-22 19:00N 08°18' E 162°33'2 2.3 29.5
2014-Jul-22 18:00N 08°18' E 162°35'0 0.0 29.5
2014-Jul-22 16:00N 08°18' E 162°35'0 0.0 29.6
2014-Jul-22 15:00N 08°18' E 162°35'3 2.7 29.6
2014-Jul-22 14:00N 08°19' E 162°38'0 0.1 29.6
2014-Jul-22 11:00N 08°19' E 162°38'   29.7
Track history (hours):
 
Tides and Currents Weather Stations Pressure Air Temp Water Temp Dewpoint Dewpoint Depression Visibility Wind Speed Wind Dir Waves Ship Positions

Drifting buoy 52912

Last reported at 2014-Aug-01 11:00 UTC. Time now 2014-Aug-01 14:03 UTC.
Position N 08°49' E 161°46'.

Water temperature 29.7 ° C

Date/timePositionNaut miles runAvg speedWind from/ knotsBaromVisibWave heightAir tempDewpointWater temp
2014-Aug-01 11:00N 08°49' E 161°46'0 0.1 29.7
2014-Aug-01 05:00N 08°49' E 161°46'0 0.0 30.1
2014-Aug-01 04:00N 08°49' E 161°46'2 1.6 30.1
2014-Aug-01 03:00N 08°48' E 161°47'0 0.0 29.9
2014-Jul-31 23:00N 08°48' E 161°47'2 0.3 29.7
2014-Jul-31 16:00N 08°46' E 161°49'2 0.8 29.6
2014-Jul-31 14:00N 08°45' E 161°49'0 0.0 29.6
2014-Jul-31 11:00N 08°45' E 161°49'1 0.6 29.6
2014-Jul-31 09:00N 08°43' E 161°49'2 0.8 29.6
2014-Jul-31 07:00N 08°42' E 161°50'0 0.1 29.6
2014-Jul-31 05:00N 08°43' E 161°50'1 1.2 29.7
2014-Jul-31 04:00N 08°42' E 161°51'0 0.0 29.7
2014-Jul-31 03:00N 08°42' E 161°51'4 0.6 29.7
2014-Jul-30 19:00N 08°37' E 161°52'2 2.1 29.6
2014-Jul-30 18:00N 08°36' E 161°53'1 0.6 29.5
2014-Jul-30 16:00N 08°35' E 161°54'0 0.0 29.5
2014-Jul-30 15:00N 08°35' E 161°54'0 0.0 29.5
2014-Jul-30 14:00N 08°35' E 161°54'0 0.1 29.5
2014-Jul-30 10:00N 08°34' E 161°54'5 0.5 29.7
2014-Jul-30 01:00N 08°32' E 161°58'1 0.2 29.6
2014-Jul-29 22:00N 08°31' E 161°57'5 0.9 29.7
2014-Jul-29 17:00N 08°29' E 162°02'2 2.2 29.9
2014-Jul-29 16:00N 08°29' E 162°04'0 0.0 30.0
2014-Jul-29 15:00N 08°29' E 162°04'1 0.2 30.0
2014-Jul-29 11:00N 08°29' E 162°05'4 0.9 30.0
2014-Jul-29 07:00N 08°28' E 162°08'0 0.0 30.4
2014-Jul-29 06:00N 08°28' E 162°08'1 0.6 30.7
2014-Jul-29 05:00N 08°28' E 162°09'1 0.6 30.9
2014-Jul-29 03:00N 08°28' E 162°10'3 0.5 30.9
2014-Jul-28 21:00N 08°30' E 162°12'1 0.2 29.6
2014-Jul-28 18:00N 08°30' E 162°13'0 0.0 29.6
2014-Jul-28 17:00N 08°30' E 162°13'2 0.3 29.6
2014-Jul-28 11:00N 08°32' E 162°13'0 0.1 29.7
2014-Jul-28 09:00N 08°32' E 162°12'1 0.7 29.8
2014-Jul-28 07:00N 08°31' E 162°14'0 0.0 29.9
2014-Jul-28 06:00N 08°31' E 162°14'1 0.2 30.0
2014-Jul-28 03:00N 08°31' E 162°13'2 2.1 30.1
2014-Jul-28 02:00N 08°31' E 162°11'0 0.0 30.0
2014-Jul-28 01:00N 08°31' E 162°11'2 0.4 29.9
2014-Jul-27 18:00N 08°29' E 162°12'0 0.0 29.5
2014-Jul-27 17:00N 08°29' E 162°12'1 0.9 29.5
2014-Jul-27 16:00N 08°28' E 162°11'1 0.3 29.5
2014-Jul-27 11:00N 08°27' E 162°10'1 0.5 29.5
2014-Jul-27 09:00N 08°26' E 162°09'0 0.0 29.6
2014-Jul-27 08:00N 08°26' E 162°09'4 0.9 29.6
2014-Jul-27 03:00N 08°23' E 162°12'0 0.0 29.6
2014-Jul-27 02:00N 08°23' E 162°12'0 0.0 29.5
2014-Jul-27 01:00N 08°23' E 162°12'2 1.0 29.5
2014-Jul-26 23:00N 08°21' E 162°11'3 2.8 29.3
2014-Jul-26 22:00N 08°18' E 162°12'1 0.3 29.3
2014-Jul-26 19:00N 08°18' E 162°12'2 1.7 29.6
2014-Jul-26 18:00N 08°18' E 162°14'1 0.4 29.5
2014-Jul-26 15:00N 08°18' E 162°15'7 0.6 29.7
2014-Jul-26 04:00N 08°16' E 162°22'0 0.0 29.8
2014-Jul-26 03:00N 08°16' E 162°22'5 0.8 29.8
2014-Jul-25 21:00N 08°17' E 162°27'0 0.0 29.5
2014-Jul-25 18:00N 08°17' E 162°27'4 0.6 29.4
2014-Jul-25 10:00N 08°20' E 162°29'2 0.5 29.6
2014-Jul-25 05:00N 08°22' E 162°30'2 0.5 29.6
2014-Jul-25 02:00N 08°24' E 162°29'2 0.5 29.5
2014-Jul-24 22:00N 08°26' E 162°28'0 0.0 29.7
2014-Jul-24 21:00N 08°26' E 162°28'0 0.0 29.6
2014-Jul-24 19:00N 08°26' E 162°28'0 0.0 29.6
2014-Jul-24 18:00N 08°26' E 162°28'1 0.7 29.6
2014-Jul-24 16:00N 08°27' E 162°27'0 0.0 29.6
2014-Jul-24 15:00N 08°27' E 162°27'2 0.4 29.6
2014-Jul-24 10:00N 08°28' E 162°25'0 0.4 29.7
2014-Jul-24 09:00N 08°28' E 162°25'2 0.6 29.7
2014-Jul-24 05:00N 08°26' E 162°23'5 0.4 29.8
2014-Jul-23 18:00N 08°22' E 162°24'1 0.6 29.6
2014-Jul-23 16:00N 08°21' E 162°25'0 0.0 29.7
2014-Jul-23 15:00N 08°21' E 162°25'4 0.5 29.7
2014-Jul-23 07:00N 08°19' E 162°28'0 0.2 30.0
2014-Jul-23 05:00N 08°19' E 162°28'1 1.1 30.1
2014-Jul-23 04:00N 08°19' E 162°29'0 0.1 30.0
2014-Jul-23 03:00N 08°19' E 162°29'4 0.5 30.0
2014-Jul-22 20:00N 08°18' E 162°33'0 0.0 29.5
2014-Jul-22 19:00N 08°18' E 162°33'2 2.3 29.5
2014-Jul-22 18:00N 08°18' E 162°35'0 0.0 29.5
2014-Jul-22 16:00N 08°18' E 162°35'0 0.0 29.6
2014-Jul-22 15:00N 08°18' E 162°35'3 2.7 29.6
2014-Jul-22 14:00N 08°19' E 162°38'0 0.1 29.6
2014-Jul-22 11:00N 08°19' E 162°38'   29.7

Dump ship's entire track history